createdAt,value
2022-11-16T00:01:06.098Z,41.03
2022-11-16T00:04:12.589Z,40.23
2022-11-16T00:07:15.771Z,40.60
2022-11-16T00:10:21.454Z,40.23
2022-11-16T00:13:24.705Z,42.10
2022-11-16T00:16:27.733Z,39.80
2022-11-16T00:19:32.546Z,38.97
2022-11-16T00:22:36.005Z,38.43
2022-11-16T00:25:39.063Z,39.80
2022-11-16T00:28:42.154Z,39.00
2022-11-16T00:31:45.930Z,38.17
2022-11-16T00:34:50.471Z,37.53
2022-11-16T00:37:53.690Z,39.03
2022-11-16T00:40:56.775Z,36.93
2022-11-16T00:43:59.789Z,37.50
2022-11-16T00:47:02.961Z,37.43
2022-11-16T00:50:08.134Z,37.00
2022-11-16T00:53:14.601Z,36.70
2022-11-16T00:56:17.968Z,37.07
2022-11-16T00:59:21.216Z,36.70
2022-11-16T01:02:24.861Z,36.27
2022-11-16T01:05:29.287Z,35.90
2022-11-16T01:08:32.929Z,36.93
2022-11-16T01:11:53.638Z,36.00
2022-11-16T01:14:57.191Z,35.33
2022-11-16T01:18:00.433Z,36.07
2022-11-16T01:21:07.618Z,34.40
2022-11-16T01:24:10.884Z,34.07
2022-11-16T01:27:14.024Z,34.40
2022-11-16T01:30:17.450Z,33.50
2022-11-16T01:33:20.567Z,32.97
2022-11-16T01:36:25.059Z,32.70
2022-11-16T01:39:28.376Z,34.77
2022-11-16T01:42:33.617Z,32.73
2022-11-16T01:45:41.219Z,33.40
2022-11-16T01:48:44.568Z,33.20
2022-11-16T01:51:52.829Z,32.20
2022-11-16T01:54:56.690Z,31.70
2022-11-16T01:58:00.610Z,32.17
2022-11-16T02:01:03.848Z,32.80
2022-11-16T02:04:07.373Z,31.93
2022-11-16T02:07:23.267Z,31.40
2022-11-16T02:10:41.175Z,30.97
2022-11-16T02:13:53.859Z,31.87
2022-11-16T02:17:13.615Z,32.83
2022-11-16T02:20:45.622Z,31.53
2022-11-16T02:24:07.363Z,31.30
2022-11-16T02:27:47.439Z,31.60
2022-11-16T02:30:55.369Z,32.10
2022-11-16T02:34:00.890Z,30.63
2022-11-16T02:37:08.339Z,28.20
2022-11-16T02:40:17.064Z,30.07
2022-11-16T02:43:26.552Z,30.10
2022-11-16T02:46:39.396Z,29.80
2022-11-16T02:49:48.606Z,30.17
2022-11-16T02:52:51.794Z,31.43
2022-11-16T02:55:57.186Z,29.27
2022-11-16T02:59:01.067Z,28.43
2022-11-16T03:02:18.665Z,29.50
2022-11-16T03:05:32.284Z,30.53
2022-11-16T03:08:39.509Z,28.10
2022-11-16T03:12:03.714Z,29.90
2022-11-16T03:15:11.270Z,29.50
2022-11-16T03:18:18.116Z,27.17
2022-11-16T03:21:30.190Z,27.47
2022-11-16T03:24:33.712Z,28.90
2022-11-16T03:27:39.988Z,27.97
2022-11-16T03:30:47.002Z,26.67
2022-11-16T03:33:56.118Z,28.20
2022-11-16T03:37:01.620Z,28.03
2022-11-16T03:40:07.553Z,28.67
2022-11-16T03:43:11.539Z,28.77
2022-11-16T03:46:16.658Z,26.90
2022-11-16T03:49:24.210Z,28.20
2022-11-16T03:52:27.303Z,27.60
2022-11-16T03:55:30.367Z,28.20
2022-11-16T03:58:33.707Z,26.90
2022-11-16T04:01:41.769Z,26.50
2022-11-16T04:05:06.462Z,26.20
2022-11-16T04:08:33.603Z,26.83
2022-11-16T04:11:55.034Z,25.67
2022-11-16T04:15:15.770Z,26.63
2022-11-16T04:18:36.525Z,27.70
2022-11-16T04:22:02.362Z,24.83
2022-11-16T04:25:11.646Z,24.30
2022-11-16T04:28:16.306Z,24.77
2022-11-16T04:31:45.536Z,25.07
2022-11-16T04:35:06.161Z,26.47
2022-11-16T04:38:10.680Z,28.23
2022-11-16T04:41:29.083Z,28.23
2022-11-16T04:44:49.143Z,25.90
2022-11-16T04:47:53.240Z,26.87
2022-11-16T04:50:56.406Z,29.90
2022-11-16T04:54:01.221Z,29.00
2022-11-16T04:57:04.609Z,30.20
2022-11-16T05:00:09.326Z,28.43
2022-11-16T05:03:12.454Z,28.83
2022-11-16T05:06:15.769Z,30.00
2022-11-16T05:09:20.353Z,31.27
2022-11-16T05:12:27.275Z,30.23
2022-11-16T05:15:30.370Z,32.13
2022-11-16T05:18:34.779Z,31.17
2022-11-16T05:21:37.118Z,29.87
2022-11-16T05:24:41.635Z,28.70
2022-11-16T05:27:44.782Z,29.83
2022-11-16T05:30:47.916Z,27.03
2022-11-16T05:33:50.938Z,27.90
2022-11-16T05:36:54.650Z,27.00
2022-11-16T05:39:59.088Z,26.53
2022-11-16T05:43:02.411Z,25.40
2022-11-16T05:46:05.566Z,27.27
2022-11-16T05:49:09.392Z,25.30
2022-11-16T05:52:12.693Z,25.03
2022-11-16T05:55:17.394Z,25.33
2022-11-16T05:58:20.681Z,26.80
2022-11-16T06:01:23.928Z,27.10
2022-11-16T06:04:27.614Z,25.60
2022-11-16T06:07:30.869Z,26.57
2022-11-16T06:10:35.435Z,25.80
2022-11-16T06:13:38.888Z,26.63
2022-11-16T06:16:42.197Z,25.00
2022-11-16T06:19:45.255Z,25.80
2022-11-16T06:22:48.876Z,24.40
2022-11-16T06:25:56.053Z,24.40
2022-11-16T06:29:00.310Z,25.00
2022-11-16T06:32:03.380Z,25.27
2022-11-16T06:35:07.349Z,23.70
2022-11-16T06:38:11.244Z,22.77
2022-11-16T06:41:15.687Z,25.60
2022-11-16T06:44:18.712Z,23.27
2022-11-16T06:47:21.760Z,23.13
2022-11-16T06:50:25.244Z,23.33
2022-11-16T06:53:30.701Z,24.93
2022-11-16T06:56:36.550Z,21.70
2022-11-16T06:59:39.592Z,23.70
2022-11-16T07:02:42.684Z,22.37
2022-11-16T07:05:45.788Z,23.43
2022-11-16T07:08:48.913Z,22.53
2022-11-16T07:11:53.420Z,21.87
2022-11-16T07:14:56.609Z,22.80
2022-11-16T07:18:04.914Z,23.10
2022-11-16T07:21:08.436Z,24.40
2022-11-16T07:24:12.211Z,22.57
2022-11-16T07:27:16.685Z,23.10
2022-11-16T07:30:20.074Z,21.97
2022-11-16T07:33:23.505Z,22.17
2022-11-16T07:36:26.564Z,21.77
2022-11-16T07:39:29.917Z,22.90
2022-11-16T07:42:34.455Z,22.57
2022-11-16T07:45:37.463Z,21.33
2022-11-16T07:48:42.660Z,21.30
2022-11-16T07:51:46.373Z,22.47
2022-11-16T07:54:49.422Z,21.57
2022-11-16T07:57:54.117Z,20.70
2022-11-16T08:01:05.045Z,21.23
2022-11-16T08:04:08.131Z,22.50
2022-11-16T08:07:11.568Z,21.20
2022-11-16T08:10:14.892Z,20.20
2022-11-16T08:13:19.330Z,21.37
2022-11-16T08:16:23.726Z,19.80
2022-11-16T08:19:26.748Z,22.03
2022-11-16T08:22:30.435Z,21.20
2022-11-16T08:25:33.489Z,20.50
2022-11-16T08:28:38.828Z,19.20
2022-11-16T08:31:41.906Z,20.43
2022-11-16T08:34:45.147Z,20.37
2022-11-16T08:37:49.213Z,21.23
2022-11-16T08:40:52.303Z,20.57
2022-11-16T08:43:57.137Z,20.40
2022-11-16T08:47:00.267Z,20.20
2022-11-16T08:50:03.609Z,19.63
2022-11-16T08:53:06.699Z,20.57
2022-11-16T08:56:11.897Z,18.90
2022-11-16T08:59:18.673Z,19.43
2022-11-16T09:02:25.840Z,20.27
2022-11-16T09:05:29.212Z,20.30
2022-11-16T09:08:32.857Z,19.20
2022-11-16T09:11:36.221Z,19.30
2022-11-16T09:14:40.690Z,18.77
2022-11-16T09:17:43.972Z,19.33
2022-11-16T09:20:47.135Z,18.83
2022-11-16T09:23:50.982Z,19.00
2022-11-16T09:26:56.822Z,19.87
2022-11-16T09:30:01.276Z,20.17
2022-11-16T09:33:04.441Z,20.00
2022-11-16T09:36:10.133Z,19.17
2022-11-16T09:39:30.165Z,18.90
2022-11-16T09:42:52.388Z,19.33
2022-11-16T09:46:06.743Z,20.60
2022-11-16T09:49:17.547Z,19.40
2022-11-16T09:52:30.379Z,19.13
2022-11-16T09:55:38.358Z,19.00
2022-11-16T09:58:47.304Z,18.30
2022-11-16T10:01:57.577Z,18.37
2022-11-16T10:05:05.369Z,19.07
2022-11-16T10:08:15.921Z,19.27
2022-11-16T10:11:44.133Z,17.90
2022-11-16T10:15:23.660Z,17.47
2022-11-16T10:18:49.832Z,17.73
2022-11-16T10:22:02.163Z,18.03
2022-11-16T10:25:13.490Z,17.17
2022-11-16T10:28:37.210Z,17.33
2022-11-16T10:32:09.628Z,17.33
2022-11-16T10:35:20.026Z,17.30
2022-11-16T10:38:26.253Z,17.40
2022-11-16T10:41:34.573Z,17.83
2022-11-16T10:44:42.064Z,17.13
2022-11-16T10:47:50.836Z,17.60
2022-11-16T10:50:56.063Z,16.53
2022-11-16T10:53:59.307Z,16.53
2022-11-16T10:57:06.314Z,16.67
2022-11-16T11:00:21.061Z,16.97
2022-11-16T11:03:32.665Z,16.50
2022-11-16T11:06:40.231Z,16.87
2022-11-16T11:09:44.392Z,16.63
2022-11-16T11:13:03.900Z,17.03
2022-11-16T11:16:19.088Z,17.13
2022-11-16T11:19:27.940Z,16.63
2022-11-16T11:22:33.725Z,17.10
2022-11-16T11:25:41.231Z,16.43
2022-11-16T11:28:51.104Z,17.17
2022-11-16T11:31:59.244Z,15.50
2022-11-16T11:35:03.672Z,16.00
2022-11-16T11:38:08.664Z,15.33
2022-11-16T11:41:20.241Z,16.17
2022-11-16T11:44:37.490Z,16.67
2022-11-16T11:47:58.434Z,16.17
2022-11-16T11:51:12.175Z,15.07
2022-11-16T11:54:24.228Z,15.87
2022-11-16T11:57:27.388Z,15.67
2022-11-16T12:00:40.783Z,15.00
2022-11-16T12:03:59.212Z,16.17
2022-11-16T12:07:13.707Z,15.63
2022-11-16T12:10:28.949Z,15.33
2022-11-16T12:13:57.982Z,15.10
2022-11-16T12:17:08.615Z,15.67
2022-11-16T12:20:29.620Z,15.40
2022-11-16T12:23:58.808Z,14.20
2022-11-16T12:27:15.711Z,14.63
2022-11-16T12:30:21.310Z,14.73
2022-11-16T12:33:35.251Z,14.57
2022-11-16T12:36:49.116Z,14.53
2022-11-16T12:40:09.758Z,14.73
2022-11-16T12:43:22.675Z,14.70
2022-11-16T12:46:38.628Z,13.83
2022-11-16T12:50:05.882Z,13.97
2022-11-16T12:53:25.627Z,14.67
2022-11-16T12:56:47.470Z,14.77
2022-11-16T13:00:07.925Z,14.13
2022-11-16T13:03:19.085Z,14.60
2022-11-16T13:06:27.886Z,14.60
2022-11-16T13:09:34.230Z,14.03
2022-11-16T13:12:39.274Z,13.77
2022-11-16T13:15:46.429Z,14.30
2022-11-16T13:18:50.157Z,14.83
2022-11-16T13:21:59.936Z,14.23
2022-11-16T13:25:15.946Z,13.00
2022-11-16T13:28:30.619Z,14.07
2022-11-16T13:31:45.002Z,13.77
2022-11-16T13:34:48.888Z,13.90
2022-11-16T13:37:52.873Z,13.10
2022-11-16T13:41:29.177Z,12.97
2022-11-16T13:44:32.710Z,12.47
2022-11-16T13:47:38.928Z,13.33
2022-11-16T13:50:49.939Z,13.00
2022-11-16T13:57:25.383Z,13.27
2022-11-16T14:00:33.452Z,13.10
2022-11-16T14:03:42.275Z,13.40
2022-11-16T14:07:00.606Z,13.77
2022-11-16T14:10:07.970Z,13.23
2022-11-16T14:13:39.712Z,13.13
2022-11-16T14:16:51.225Z,12.13
2022-11-16T14:19:57.448Z,12.87
2022-11-16T14:23:22.471Z,13.70
2022-11-16T14:26:38.571Z,13.13
2022-11-16T14:29:57.435Z,13.10
2022-11-16T14:33:00.656Z,12.50
2022-11-16T14:36:08.996Z,13.07
2022-11-16T14:39:31.192Z,12.67
2022-11-16T14:42:54.715Z,12.50
2022-11-16T14:46:08.716Z,12.60
2022-11-16T14:49:16.316Z,12.50
2022-11-16T14:52:28.214Z,12.37
2022-11-16T14:55:31.345Z,13.03
2022-11-16T14:58:35.902Z,11.57
2022-11-16T15:01:41.145Z,12.73
2022-11-16T15:04:44.700Z,12.07
2022-11-16T15:07:52.607Z,12.03
2022-11-16T15:10:55.857Z,12.60
2022-11-16T15:13:59.532Z,12.20
2022-11-16T15:17:02.645Z,12.80
2022-11-16T15:20:17.470Z,12.20
2022-11-16T15:23:24.964Z,11.67
2022-11-16T15:26:32.518Z,11.87
2022-11-16T15:29:35.956Z,12.07
2022-11-16T15:32:43.463Z,12.90
2022-11-16T15:35:47.391Z,12.37
2022-11-16T15:38:54.718Z,12.83
2022-11-16T15:42:03.428Z,11.97
2022-11-16T15:45:15.508Z,11.93
2022-11-16T15:48:21.455Z,12.03
2022-11-16T15:51:25.095Z,12.30
2022-11-16T15:54:31.166Z,12.47
2022-11-16T15:57:34.290Z,11.80
2022-11-16T16:00:38.564Z,11.70
2022-11-16T16:03:51.893Z,11.43
2022-11-16T16:06:57.235Z,12.93
2022-11-16T16:10:23.385Z,11.67
2022-11-16T16:13:31.016Z,12.47
2022-11-16T16:16:36.347Z,11.80
2022-11-16T16:19:42.566Z,12.00
2022-11-16T16:22:46.264Z,11.90
2022-11-16T16:25:50.981Z,12.07
2022-11-16T16:28:54.093Z,11.13
2022-11-16T16:31:57.513Z,12.10
2022-11-16T16:35:02.404Z,12.20
2022-11-16T16:38:14.918Z,21.23
2022-11-16T16:41:24.455Z,19.27
2022-11-16T16:44:27.940Z,19.93
2022-11-16T16:47:32.451Z,22.50
2022-11-16T16:50:36.300Z,22.33
2022-11-16T16:53:39.440Z,22.80
2022-11-16T16:56:44.035Z,22.00
2022-11-16T16:59:48.701Z,22.73
2022-11-16T17:02:53.397Z,21.90
2022-11-16T17:06:01.216Z,21.40
2022-11-16T17:09:04.691Z,20.60
2022-11-16T17:12:11.304Z,20.23
2022-11-16T17:15:19.152Z,20.17
2022-11-16T17:18:24.457Z,21.80
2022-11-16T17:21:28.193Z,19.80
2022-11-16T17:24:31.396Z,20.47
2022-11-16T17:27:36.110Z,21.30
2022-11-16T17:30:39.528Z,21.43
2022-11-16T17:33:45.679Z,20.50
2022-11-16T17:36:49.030Z,19.33
2022-11-16T17:39:52.216Z,20.50
2022-11-16T17:42:56.816Z,19.67
2022-11-16T17:46:04.422Z,19.83
2022-11-16T17:49:07.923Z,19.27
2022-11-16T17:52:12.947Z,24.67
2022-11-16T17:55:16.643Z,24.90
2022-11-16T17:58:23.917Z,22.67
2022-11-16T18:01:28.733Z,24.20
2022-11-16T18:04:31.879Z,25.90
2022-11-16T18:07:36.322Z,22.13
2022-11-16T18:10:39.975Z,23.73
2022-11-16T18:13:44.848Z,21.77
2022-11-16T18:16:48.087Z,22.23
2022-11-16T18:19:51.191Z,23.67
2022-11-16T18:22:54.507Z,20.90
2022-11-16T18:25:58.696Z,22.20
2022-11-16T18:29:03.480Z,21.33
2022-11-16T18:32:08.369Z,23.90
2022-11-16T18:35:11.819Z,25.57
2022-11-16T18:38:14.945Z,27.40
2022-11-16T18:41:22.031Z,29.43
2022-11-16T18:44:26.539Z,28.63
2022-11-16T18:47:29.578Z,28.40
2022-11-16T18:50:32.682Z,28.10
2022-11-16T18:53:36.022Z,28.27
2022-11-16T18:56:39.570Z,27.93
2022-11-16T18:59:44.203Z,27.27
2022-11-16T19:02:47.302Z,25.90
2022-11-16T19:05:58.742Z,28.20
2022-11-16T19:09:04.004Z,26.37
2022-11-16T19:12:07.455Z,27.27
2022-11-16T19:15:12.428Z,26.33
2022-11-16T19:18:21.117Z,25.43
2022-11-16T19:21:24.881Z,26.70
2022-11-16T19:24:27.996Z,26.00
2022-11-16T19:27:32.230Z,26.37
2022-11-16T19:30:36.729Z,34.37
2022-11-16T19:33:40.616Z,34.53
2022-11-16T19:36:43.716Z,36.30
2022-11-16T19:39:48.129Z,39.80
2022-11-16T19:42:53.543Z,37.60
2022-11-16T19:46:04.032Z,37.60
2022-11-16T19:49:08.690Z,38.90
2022-11-16T19:52:12.304Z,38.97
2022-11-16T19:55:15.664Z,36.93
2022-11-16T19:58:18.814Z,37.53
2022-11-16T20:01:25.565Z,37.47
2022-11-16T20:04:32.871Z,38.47
2022-11-16T20:07:38.884Z,37.93
2022-11-16T20:10:42.011Z,36.20
2022-11-16T20:13:45.944Z,40.63
2022-11-16T20:16:50.927Z,42.60
2022-11-16T20:19:54.091Z,44.50
2022-11-16T20:22:57.671Z,47.23
2022-11-16T20:26:00.792Z,49.87
2022-11-16T20:29:05.734Z,47.80
2022-11-16T20:32:10.264Z,49.43
2022-11-16T20:35:18.816Z,48.83
2022-11-16T20:38:22.262Z,50.73
2022-11-16T20:41:27.334Z,51.40
2022-11-16T20:44:32.190Z,48.70
2022-11-16T20:47:36.646Z,54.07
2022-11-16T20:50:40.777Z,52.70
2022-11-16T20:53:44.461Z,54.03
2022-11-16T20:56:54.005Z,56.83
2022-11-16T20:59:57.151Z,54.67
2022-11-16T21:03:01.911Z,57.47
2022-11-16T21:06:08.497Z,57.37
2022-11-16T21:09:13.155Z,61.07
2022-11-16T21:12:35.107Z,57.50
2022-11-16T21:15:40.974Z,59.20
2022-11-16T21:18:45.535Z,59.47
2022-11-16T21:21:48.940Z,60.70
2022-11-16T21:24:51.966Z,61.20
2022-11-16T21:27:57.153Z,62.60
2022-11-16T21:31:02.316Z,62.20
2022-11-16T21:34:07.582Z,64.80
2022-11-16T21:37:10.910Z,66.83
2022-11-16T21:40:14.464Z,65.17
2022-11-16T21:43:18.856Z,67.33
2022-11-16T21:46:24.812Z,67.80
2022-11-16T21:49:29.580Z,66.73
2022-11-16T21:52:32.813Z,70.93
2022-11-16T21:55:36.232Z,67.63
2022-11-16T21:58:40.328Z,66.83
2022-11-16T22:01:57.238Z,69.70
2022-11-16T22:05:19.344Z,67.53
2022-11-16T22:08:22.869Z,66.87
2022-11-16T22:11:26.082Z,67.80
2022-11-16T22:14:29.197Z,65.27
2022-11-16T22:17:32.337Z,69.00
2022-11-16T22:20:36.949Z,66.60
2022-11-16T22:23:40.463Z,67.60
2022-11-16T22:26:44.614Z,66.53
2022-11-16T22:29:47.766Z,65.90
2022-11-16T22:32:50.884Z,63.30
2022-11-16T22:35:56.574Z,65.07
2022-11-16T22:38:59.587Z,66.63
2022-11-16T22:42:02.661Z,64.00
2022-11-16T22:45:06.510Z,64.30
2022-11-16T22:48:09.598Z,65.30
2022-11-16T22:51:20.496Z,63.63
2022-11-16T22:54:28.437Z,61.87
2022-11-16T22:57:32.097Z,62.63
2022-11-16T23:00:41.803Z,62.87
2022-11-16T23:03:45.426Z,62.10
2022-11-16T23:06:50.004Z,61.87
2022-11-16T23:09:53.177Z,60.27
2022-11-16T23:13:14.127Z,60.00
2022-11-16T23:16:17.273Z,60.43
2022-11-16T23:19:39.729Z,60.70
2022-11-16T23:23:01.440Z,57.13
2022-11-16T23:26:30.231Z,60.17
2022-11-16T23:29:33.608Z,60.23
2022-11-16T23:32:36.630Z,58.03
2022-11-16T23:35:40.126Z,59.47
2022-11-16T23:38:45.669Z,57.70
2022-11-16T23:42:05.985Z,55.53
2022-11-16T23:45:09.600Z,57.03
2022-11-16T23:48:15.312Z,56.90
2022-11-16T23:51:19.439Z,55.90
2022-11-16T23:54:24.040Z,57.97
2022-11-16T23:57:27.159Z,55.20
